createdAt,value
2019-04-07T00:01:51.436Z,19.20
2019-04-07T00:04:21.565Z,19.80
2019-04-07T00:06:51.166Z,20.05
2019-04-07T00:09:20.596Z,20.55
2019-04-07T00:11:49.948Z,19.65
2019-04-07T00:14:19.411Z,21.50
2019-04-07T00:16:49.516Z,19.73
2019-04-07T00:19:19.074Z,20.43
2019-04-07T00:21:48.432Z,22.48
2019-04-07T00:24:18.067Z,21.60
2019-04-07T00:26:47.608Z,22.52
2019-04-07T00:29:17.428Z,21.68
2019-04-07T00:31:47.073Z,21.93
2019-04-07T00:34:16.438Z,22.58
2019-04-07T00:36:45.922Z,21.42
2019-04-07T00:39:15.398Z,23.45
2019-04-07T00:41:45.399Z,21.90
2019-04-07T00:44:15.599Z,22.82
2019-04-07T00:46:45.091Z,22.22
2019-04-07T00:49:14.875Z,23.38
2019-04-07T00:51:44.357Z,23.75
2019-04-07T00:54:13.707Z,23.25
2019-04-07T00:56:43.852Z,22.35
2019-04-07T00:59:13.514Z,24.00
2019-04-07T01:01:42.870Z,24.85
2019-04-07T01:04:12.321Z,23.65
2019-04-07T01:06:42.201Z,22.93
2019-04-07T01:09:11.601Z,23.07
2019-04-07T01:11:40.930Z,23.73
2019-04-07T01:14:10.917Z,22.93
2019-04-07T01:16:40.730Z,24.30
2019-04-07T01:19:10.367Z,23.05
2019-04-07T01:21:40.370Z,23.25
2019-04-07T01:24:09.892Z,24.00
2019-04-07T01:26:39.423Z,24.25
2019-04-07T01:29:09.205Z,24.47
2019-04-07T01:31:38.607Z,24.37
2019-04-07T01:34:10.622Z,26.48
2019-04-07T01:36:40.052Z,23.62
2019-04-07T01:39:11.052Z,26.37
2019-04-07T01:41:57.175Z,24.75
2019-04-07T01:44:43.894Z,24.20
2019-04-07T01:47:15.665Z,24.75
2019-04-07T01:49:45.150Z,24.52
2019-04-07T01:52:21.070Z,24.00
2019-04-07T01:54:53.663Z,23.40
2019-04-07T01:57:33.917Z,23.77
2019-04-07T02:00:24.926Z,23.15
2019-04-07T02:03:04.969Z,24.07
2019-04-07T02:05:43.191Z,23.15
2019-04-07T02:08:20.167Z,22.62
2019-04-07T02:10:57.125Z,23.10
2019-04-07T02:13:31.203Z,23.27
2019-04-07T02:16:05.326Z,25.23
2019-04-07T02:18:36.506Z,24.10
2019-04-07T02:21:23.982Z,25.15
2019-04-07T02:24:11.427Z,23.18
2019-04-07T02:26:58.712Z,26.48
2019-04-07T02:29:30.740Z,25.30
2019-04-07T02:32:06.024Z,25.85
2019-04-07T02:34:44.071Z,24.72
2019-04-07T02:37:15.341Z,25.05
2019-04-07T02:39:51.957Z,23.05
2019-04-07T02:42:39.522Z,24.52
2019-04-07T02:45:17.110Z,24.55
2019-04-07T02:47:58.402Z,25.72
2019-04-07T02:50:45.232Z,23.45
2019-04-07T02:53:25.273Z,24.35
2019-04-07T02:56:12.969Z,24.92
2019-04-07T02:58:47.779Z,25.68
2019-04-07T03:01:35.137Z,24.72
2019-04-07T03:04:09.555Z,25.70
2019-04-07T03:06:56.886Z,25.45
2019-04-07T03:09:38.257Z,26.45
2019-04-07T03:12:09.246Z,26.57
2019-04-07T03:14:53.154Z,25.70
2019-04-07T03:17:27.600Z,27.82
2019-04-07T03:20:08.631Z,28.10
2019-04-07T03:22:48.703Z,27.15
2019-04-07T03:25:20.786Z,25.08
2019-04-07T03:28:10.240Z,25.97
2019-04-07T03:30:42.015Z,26.23
2019-04-07T03:33:15.800Z,25.95
2019-04-07T03:35:48.509Z,27.93
2019-04-07T03:38:16.947Z,24.20
2019-04-07T03:40:48.185Z,27.35
2019-04-07T03:43:19.658Z,26.17
2019-04-07T03:45:53.910Z,26.68
2019-04-07T03:48:32.378Z,26.55
2019-04-07T03:51:06.957Z,25.60
2019-04-07T03:53:39.133Z,24.12
2019-04-07T03:58:57.854Z,25.10
2019-04-07T04:01:35.622Z,27.22
2019-04-07T04:04:07.433Z,27.17
2019-04-07T04:06:56.901Z,26.17
2019-04-07T04:09:41.271Z,26.68
2019-04-07T04:12:10.729Z,25.55
2019-04-07T04:14:45.371Z,25.85
2019-04-07T04:17:14.962Z,24.52
2019-04-07T04:19:44.287Z,23.85
2019-04-07T04:22:14.173Z,24.63
2019-04-07T04:24:43.896Z,25.82
2019-04-07T04:27:13.358Z,27.00
2019-04-07T04:29:43.448Z,26.90
2019-04-07T04:32:13.421Z,27.15
2019-04-07T04:34:43.206Z,25.48
2019-04-07T04:37:12.770Z,27.20
2019-04-07T04:39:42.284Z,27.77
2019-04-07T04:42:11.629Z,28.90
2019-04-07T04:44:40.971Z,26.82
2019-04-07T04:47:10.418Z,26.20
2019-04-07T04:49:40.358Z,27.45
2019-04-07T04:52:11.544Z,27.25
2019-04-07T04:54:42.051Z,26.40
2019-04-07T04:57:11.485Z,25.68
2019-04-07T04:59:40.900Z,28.27
2019-04-07T05:02:10.778Z,28.07
2019-04-07T05:04:40.491Z,26.02
2019-04-07T05:07:10.182Z,25.37
2019-04-07T05:09:46.106Z,28.00
2019-04-07T05:12:10.744Z,26.35
2019-04-07T05:14:40.119Z,26.68
2019-04-07T05:17:10.073Z,27.22
2019-04-07T05:19:42.619Z,26.73
2019-04-07T05:22:10.603Z,29.77
2019-04-07T05:24:40.125Z,31.07
2019-04-07T05:27:09.724Z,34.65
2019-04-07T05:29:39.261Z,31.82
2019-04-07T05:32:08.851Z,30.12
2019-04-07T05:34:39.097Z,35.00
2019-04-07T05:37:08.742Z,34.30
2019-04-07T05:39:38.408Z,33.23
2019-04-07T05:42:08.042Z,35.30
2019-04-07T05:44:37.403Z,33.38
2019-04-07T05:47:07.125Z,31.15
2019-04-07T05:49:36.484Z,27.93
2019-04-07T05:52:06.600Z,28.92
2019-04-07T05:54:36.343Z,29.10
2019-04-07T05:57:05.744Z,27.25
2019-04-07T05:59:35.430Z,28.17
2019-04-07T06:02:05.103Z,29.70
2019-04-07T06:04:34.894Z,28.73
2019-04-07T06:07:04.603Z,26.87
2019-04-07T06:09:34.032Z,29.12
2019-04-07T06:12:08.498Z,28.30
2019-04-07T06:14:34.606Z,27.55
2019-04-07T06:17:04.819Z,27.62
2019-04-07T06:19:37.475Z,27.52
2019-04-07T06:22:07.499Z,28.30
2019-04-07T06:24:36.509Z,29.80
2019-04-07T06:27:05.950Z,29.27
2019-04-07T06:29:35.535Z,28.55
2019-04-07T06:32:05.590Z,27.27
2019-04-07T06:34:39.773Z,26.95
2019-04-07T06:37:07.680Z,26.05
2019-04-07T06:39:37.388Z,25.57
2019-04-07T06:42:07.513Z,26.40
2019-04-07T06:44:37.729Z,26.50
2019-04-07T06:47:13.180Z,28.45
2019-04-07T06:50:05.542Z,27.52
2019-04-07T06:52:40.760Z,27.98
2019-04-07T06:55:17.885Z,27.73
2019-04-07T06:57:52.995Z,29.12
2019-04-07T07:00:40.829Z,28.20
2019-04-07T07:03:20.670Z,28.62
2019-04-07T07:06:00.195Z,29.87
2019-04-07T07:08:46.077Z,29.60
2019-04-07T07:11:32.320Z,28.02
2019-04-07T07:14:30.017Z,29.12
2019-04-07T07:16:47.652Z,28.55
2019-04-07T07:19:33.760Z,28.55
2019-04-07T07:22:06.165Z,28.57
2019-04-07T07:24:33.959Z,28.35
2019-04-07T07:27:07.273Z,28.77
2019-04-07T07:29:35.152Z,28.35
2019-04-07T07:32:04.936Z,29.52
2019-04-07T07:34:34.323Z,29.27
2019-04-07T07:37:04.089Z,27.37
2019-04-07T07:39:34.087Z,27.25
2019-04-07T07:42:04.011Z,27.85
2019-04-07T07:44:35.882Z,28.07
2019-04-07T07:47:04.485Z,26.50
2019-04-07T07:49:36.082Z,27.42
2019-04-07T07:52:04.998Z,27.73
2019-04-07T07:54:35.132Z,29.95
2019-04-07T07:57:04.948Z,27.75
2019-04-07T07:59:37.990Z,29.07
2019-04-07T08:02:05.436Z,28.50
2019-04-07T08:04:35.585Z,28.30
2019-04-07T08:07:05.495Z,27.80
2019-04-07T08:09:34.890Z,28.17
2019-04-07T08:12:04.231Z,28.52
2019-04-07T08:14:33.585Z,26.10
2019-04-07T08:17:03.952Z,26.48
2019-04-07T08:19:33.518Z,24.57
2019-04-07T08:22:03.084Z,24.87
2019-04-07T08:24:32.715Z,24.23
2019-04-07T08:27:02.243Z,24.10
2019-04-07T08:29:32.398Z,23.62
2019-04-07T08:32:02.105Z,24.43
2019-04-07T08:34:32.936Z,23.75
2019-04-07T08:37:03.559Z,23.52
2019-04-07T08:39:35.476Z,24.20
2019-04-07T08:42:09.585Z,24.65
2019-04-07T08:44:35.457Z,23.45
2019-04-07T08:47:04.931Z,24.50
2019-04-07T08:49:35.412Z,23.87
2019-04-07T08:52:09.677Z,22.85
2019-04-07T08:54:36.864Z,23.87
2019-04-07T08:57:07.004Z,25.17
2019-04-07T08:59:39.889Z,23.95
2019-04-07T09:02:07.676Z,22.70
2019-04-07T09:04:37.068Z,23.25
2019-04-07T09:07:06.421Z,23.07
2019-04-07T09:09:38.025Z,22.62
2019-04-07T09:12:07.134Z,23.73
2019-04-07T09:14:38.755Z,23.30
2019-04-07T09:17:29.991Z,22.70
2019-04-07T09:19:49.647Z,22.42
2019-04-07T09:22:36.809Z,23.27
2019-04-07T09:25:25.071Z,22.13
2019-04-07T09:27:56.088Z,22.60
2019-04-07T09:30:27.314Z,23.43
2019-04-07T09:32:58.821Z,23.42
2019-04-07T09:35:36.247Z,22.93
2019-04-07T09:38:24.894Z,22.15
2019-04-07T09:41:11.157Z,21.60
2019-04-07T09:43:45.049Z,22.42
2019-04-07T09:46:31.131Z,21.55
2019-04-07T09:49:21.216Z,21.48
2019-04-07T09:51:50.652Z,20.90
2019-04-07T09:54:37.342Z,22.90
2019-04-07T09:57:12.222Z,22.52
2019-04-07T09:59:54.214Z,23.83
2019-04-07T10:02:31.820Z,24.15
2019-04-07T10:05:06.948Z,23.27
2019-04-07T10:07:51.819Z,24.47
2019-04-07T10:10:23.695Z,23.10
2019-04-07T10:15:47.558Z,22.95
2019-04-07T10:18:34.891Z,22.90
2019-04-07T10:21:09.948Z,21.60
2019-04-07T10:23:50.901Z,22.52
2019-04-07T10:26:27.900Z,22.05
2019-04-07T10:28:59.507Z,21.48
2019-04-07T10:31:33.727Z,22.22
2019-04-07T10:34:16.542Z,21.87
2019-04-07T10:37:04.865Z,22.32
2019-04-07T10:39:36.009Z,21.23
2019-04-07T10:42:23.601Z,22.93
2019-04-07T10:45:07.267Z,22.27
2019-04-07T10:47:41.213Z,21.97
2019-04-07T10:50:12.503Z,22.42
2019-04-07T10:52:46.956Z,21.35
2019-04-07T10:55:34.148Z,22.32
2019-04-07T10:58:05.451Z,21.77
2019-04-07T11:00:48.985Z,22.42
2019-04-07T11:03:28.373Z,23.00
2019-04-07T11:06:07.227Z,21.48
2019-04-07T11:08:38.296Z,22.05
2019-04-07T11:11:07.897Z,22.10
2019-04-07T11:13:55.465Z,22.32
2019-04-07T11:16:35.597Z,23.27
2019-04-07T11:19:04.927Z,21.75
2019-04-07T11:21:41.658Z,20.45
2019-04-07T11:24:16.574Z,20.12
2019-04-07T11:26:51.755Z,20.05
2019-04-07T11:29:20.899Z,20.55
2019-04-07T11:31:58.350Z,21.00
2019-04-07T11:34:28.178Z,19.70
2019-04-07T11:36:59.500Z,22.37
2019-04-07T11:39:39.278Z,20.00
2019-04-07T11:42:25.160Z,20.95
2019-04-07T11:44:56.164Z,20.48
2019-04-07T11:47:25.348Z,22.03
2019-04-07T11:50:10.958Z,21.33
2019-04-07T11:52:48.305Z,21.10
2019-04-07T11:55:35.289Z,20.62
2019-04-07T11:58:13.500Z,21.23
2019-04-07T12:00:41.657Z,21.00
2019-04-07T12:03:28.890Z,20.92
2019-04-07T12:06:17.787Z,20.52
2019-04-07T12:08:55.699Z,20.88
2019-04-07T12:11:24.903Z,20.72
2019-04-07T12:14:01.669Z,18.40
2019-04-07T12:16:30.911Z,19.62
2019-04-07T12:19:01.969Z,19.75
2019-04-07T12:21:49.048Z,18.67
2019-04-07T12:24:32.549Z,19.07
2019-04-07T12:27:21.227Z,21.55
2019-04-07T12:29:51.600Z,19.17
2019-04-07T12:32:22.582Z,18.77
2019-04-07T12:35:01.138Z,18.57
2019-04-07T12:37:48.754Z,20.05
2019-04-07T12:40:23.235Z,19.95
2019-04-07T12:42:55.046Z,20.60
2019-04-07T12:45:28.794Z,19.33
2019-04-07T12:48:04.623Z,17.87
2019-04-07T12:50:54.137Z,17.95
2019-04-07T12:53:40.110Z,16.55
2019-04-07T12:56:09.680Z,18.10
2019-04-07T12:58:57.121Z,18.45
2019-04-07T13:01:47.262Z,17.15
2019-04-07T13:04:15.465Z,18.02
2019-04-07T13:06:46.931Z,17.23
2019-04-07T13:09:18.094Z,16.40
2019-04-07T13:11:52.749Z,18.48
2019-04-07T13:14:27.110Z,18.23
2019-04-07T13:17:17.013Z,16.82
2019-04-07T13:19:51.425Z,18.05
2019-04-07T13:22:26.214Z,18.00
2019-04-07T13:25:14.269Z,17.37
2019-04-07T13:27:45.523Z,16.50
2019-04-07T13:30:14.637Z,16.02
2019-04-07T13:32:50.457Z,16.82
2019-04-07T13:35:20.953Z,16.95
2019-04-07T13:38:00.112Z,17.23
2019-04-07T13:40:34.522Z,16.30
2019-04-07T13:43:13.410Z,16.15
2019-04-07T13:45:48.108Z,17.60
2019-04-07T13:48:25.880Z,16.97
2019-04-07T13:51:00.940Z,15.93
2019-04-07T13:53:47.837Z,16.87
2019-04-07T13:56:22.792Z,15.55
2019-04-07T13:59:11.259Z,15.20
2019-04-07T14:01:48.087Z,15.32
2019-04-07T14:04:18.237Z,17.07
2019-04-07T14:06:55.533Z,17.40
2019-04-07T14:09:32.526Z,17.45
2019-04-07T14:12:09.076Z,15.78
2019-04-07T14:14:37.224Z,16.42
2019-04-07T14:17:24.822Z,16.57
2019-04-07T14:20:03.821Z,17.12
2019-04-07T14:22:50.890Z,16.12
2019-04-07T14:25:31.028Z,15.88
2019-04-07T14:28:20.106Z,16.80
2019-04-07T14:31:07.600Z,15.98
2019-04-07T14:33:55.601Z,16.67
2019-04-07T14:36:43.820Z,17.32
2019-04-07T14:39:31.479Z,15.60
2019-04-07T14:42:04.536Z,17.02
2019-04-07T14:44:41.211Z,17.12
2019-04-07T14:47:18.631Z,16.73
2019-04-07T14:49:57.261Z,17.65
2019-04-07T14:52:33.749Z,16.52
2019-04-07T14:55:20.730Z,16.48
2019-04-07T14:58:00.201Z,16.57
2019-04-07T15:00:39.894Z,17.50
2019-04-07T15:03:09.444Z,16.80
2019-04-07T15:05:40.734Z,16.48
2019-04-07T15:08:15.230Z,15.68
2019-04-07T15:10:52.772Z,16.87
2019-04-07T15:13:28.178Z,16.93
2019-04-07T15:15:59.095Z,17.77
2019-04-07T15:18:28.643Z,17.23
2019-04-07T15:20:58.153Z,17.92
2019-04-07T15:23:29.428Z,18.85
2019-04-07T15:25:59.050Z,20.35
2019-04-07T15:28:30.683Z,23.57
2019-04-07T15:30:59.577Z,23.90
2019-04-07T15:33:31.430Z,21.90
2019-04-07T15:36:00.053Z,20.82
2019-04-07T15:38:29.095Z,21.00
2019-04-07T15:40:59.642Z,21.50
2019-04-07T15:43:33.291Z,20.30
2019-04-07T15:46:01.285Z,21.27
2019-04-07T15:48:31.669Z,20.65
2019-04-07T15:51:04.636Z,19.60
2019-04-07T15:53:32.917Z,20.10
2019-04-07T15:56:06.381Z,19.80
2019-04-07T15:58:33.858Z,20.60
2019-04-07T16:01:06.762Z,19.85
2019-04-07T16:03:35.625Z,18.92
2019-04-07T16:06:05.740Z,19.32
2019-04-07T16:08:35.322Z,19.07
2019-04-07T16:11:05.021Z,19.60
2019-04-07T16:13:34.484Z,19.30
2019-04-07T16:16:03.944Z,18.80
2019-04-07T16:18:37.038Z,18.70
2019-04-07T16:21:07.147Z,19.10
2019-04-07T16:23:36.324Z,18.60
2019-04-07T16:26:06.638Z,19.15
2019-04-07T16:28:36.145Z,19.70
2019-04-07T16:31:06.556Z,18.55
2019-04-07T16:33:37.197Z,19.45
2019-04-07T16:36:06.702Z,18.85
2019-04-07T16:38:36.526Z,19.15
2019-04-07T16:41:06.583Z,19.20
2019-04-07T16:43:37.754Z,19.45
2019-04-07T16:46:07.737Z,19.40
2019-04-07T16:48:40.061Z,20.20
2019-04-07T16:51:09.176Z,20.65
2019-04-07T16:53:41.687Z,22.13
2019-04-07T16:56:09.736Z,21.07
2019-04-07T16:58:40.130Z,22.35
2019-04-07T17:01:09.595Z,21.80
2019-04-07T17:03:39.808Z,23.00
2019-04-07T17:06:12.004Z,23.70
2019-04-07T17:08:40.293Z,21.82
2019-04-07T17:11:09.775Z,21.73
2019-04-07T17:13:41.758Z,22.22
2019-04-07T17:16:11.938Z,22.30
2019-04-07T17:18:43.130Z,23.33
2019-04-07T17:21:18.839Z,21.35
2019-04-07T17:23:48.312Z,23.45
2019-04-07T17:26:18.133Z,22.00
2019-04-07T17:28:49.557Z,21.35
2019-04-07T17:31:18.845Z,21.55
2019-04-07T17:33:48.920Z,21.82
2019-04-07T17:36:21.196Z,21.80
2019-04-07T17:38:51.944Z,22.98
2019-04-07T17:41:21.512Z,21.70
2019-04-07T17:43:59.042Z,21.57
2019-04-07T17:46:32.568Z,21.02
2019-04-07T17:49:04.450Z,22.93
2019-04-07T17:51:51.245Z,21.05
2019-04-07T17:54:39.631Z,21.62
2019-04-07T17:57:13.372Z,22.00
2019-04-07T17:59:48.463Z,21.52
2019-04-07T18:02:36.478Z,23.22
2019-04-07T18:05:26.479Z,23.12
2019-04-07T18:08:11.853Z,25.27
2019-04-07T18:10:57.864Z,25.82
2019-04-07T18:13:33.135Z,25.75
2019-04-07T18:16:01.715Z,22.07
2019-04-07T18:18:49.789Z,24.57
2019-04-07T18:21:24.019Z,24.45
2019-04-07T18:24:03.678Z,25.82
2019-04-07T18:26:35.455Z,27.85
2019-04-07T18:29:28.774Z,27.73
2019-04-07T18:32:01.970Z,26.85
2019-04-07T18:34:49.631Z,27.10
2019-04-07T18:37:40.042Z,24.23
2019-04-07T18:40:08.862Z,22.70
2019-04-07T18:42:44.429Z,21.23
2019-04-07T18:45:30.798Z,21.85
2019-04-07T18:48:18.150Z,21.52
2019-04-07T18:50:55.213Z,23.38
2019-04-07T18:53:42.803Z,23.15
2019-04-07T18:56:17.541Z,24.02
2019-04-07T18:58:52.320Z,25.68
2019-04-07T19:01:41.404Z,27.65
2019-04-07T19:04:17.315Z,33.38
2019-04-07T19:06:49.666Z,30.10
2019-04-07T19:09:36.757Z,31.27
2019-04-07T19:12:18.669Z,30.95
2019-04-07T19:14:52.385Z,30.20
2019-04-07T19:17:26.058Z,30.90
2019-04-07T19:20:06.272Z,30.88
2019-04-07T19:22:54.044Z,33.10
2019-04-07T19:25:29.145Z,31.65
2019-04-07T19:28:03.484Z,33.30
2019-04-07T19:30:43.622Z,31.37
2019-04-07T19:33:14.871Z,29.25
2019-04-07T19:35:55.127Z,31.05
2019-04-07T19:38:30.637Z,31.65
2019-04-07T19:41:04.755Z,28.57
2019-04-07T19:43:35.945Z,27.55
2019-04-07T19:46:15.932Z,30.05
2019-04-07T19:48:47.048Z,30.37
2019-04-07T19:51:30.611Z,29.32
2019-04-07T19:54:19.030Z,30.68
2019-04-07T19:56:50.521Z,30.10
2019-04-07T19:59:30.313Z,30.00
2019-04-07T20:02:04.029Z,29.55
2019-04-07T20:04:37.347Z,30.88
2019-04-07T20:07:14.170Z,30.32
2019-04-07T20:09:48.761Z,30.60
2019-04-07T20:12:20.642Z,30.35
2019-04-07T20:17:25.969Z,31.50
2019-04-07T20:20:09.293Z,31.77
2019-04-07T20:22:39.078Z,33.25
2019-04-07T20:25:17.103Z,33.85
2019-04-07T20:27:46.987Z,32.05
2019-04-07T20:30:17.504Z,31.85
2019-04-07T20:33:04.781Z,33.55
2019-04-07T20:35:52.181Z,32.10
2019-04-07T20:38:27.652Z,34.15
2019-04-07T20:41:14.508Z,33.98
2019-04-07T20:43:47.359Z,32.55
2019-04-07T20:46:34.490Z,32.38
2019-04-07T20:49:15.839Z,30.50
2019-04-07T20:51:54.463Z,33.30
2019-04-07T20:54:23.783Z,31.48
2019-04-07T20:56:52.904Z,34.38
2019-04-07T20:59:37.139Z,34.30
2019-04-07T21:02:11.233Z,31.12
2019-04-07T21:04:53.067Z,32.73
2019-04-07T21:07:21.580Z,33.18
2019-04-07T21:09:58.122Z,34.53
2019-04-07T21:12:38.977Z,34.33
2019-04-07T21:15:30.028Z,32.98
2019-04-07T21:17:58.261Z,33.70
2019-04-07T21:20:46.401Z,32.38
2019-04-07T21:23:20.743Z,34.90
2019-04-07T21:26:01.494Z,34.73
2019-04-07T21:28:37.761Z,33.30
2019-04-07T21:31:06.445Z,36.38
2019-04-07T21:33:41.273Z,38.05
2019-04-07T21:36:28.696Z,37.00
2019-04-07T21:39:02.384Z,37.83
2019-04-07T21:41:33.393Z,38.20
2019-04-07T21:44:20.849Z,39.70
2019-04-07T21:46:54.796Z,42.93
2019-04-07T21:49:34.745Z,39.40
2019-04-07T21:52:01.136Z,39.90
2019-04-07T21:54:40.938Z,41.00
2019-04-07T21:57:26.847Z,42.35
2019-04-07T22:00:11.211Z,41.85
2019-04-07T22:02:58.243Z,42.48
2019-04-07T22:05:29.286Z,41.33
2019-04-07T22:08:14.435Z,41.63
2019-04-07T22:10:40.275Z,41.75
2019-04-07T22:13:09.989Z,43.55
2019-04-07T22:15:47.346Z,44.90
2019-04-07T22:18:11.153Z,38.20
2019-04-07T22:20:40.693Z,43.05
2019-04-07T22:23:10.150Z,36.48
2019-04-07T22:25:48.319Z,39.38
2019-04-07T22:28:18.490Z,34.83
2019-04-07T22:30:50.872Z,34.70
2019-04-07T22:33:25.127Z,33.20
2019-04-07T22:35:51.536Z,31.85
2019-04-07T22:38:23.334Z,33.13
2019-04-07T22:40:52.159Z,31.23
2019-04-07T22:43:21.724Z,30.68
2019-04-07T22:45:58.857Z,31.27
2019-04-07T22:48:24.597Z,28.52
2019-04-07T22:50:53.875Z,29.72
2019-04-07T22:53:27.070Z,30.37
2019-04-07T22:55:54.790Z,27.65
2019-04-07T22:58:24.325Z,31.68
2019-04-07T23:00:54.297Z,28.65
2019-04-07T23:03:23.993Z,27.98
2019-04-07T23:05:53.434Z,28.52
2019-04-07T23:08:22.858Z,29.48
2019-04-07T23:10:52.194Z,27.55
2019-04-07T23:13:21.755Z,26.93
2019-04-07T23:15:51.085Z,25.05
2019-04-07T23:18:20.899Z,26.10
2019-04-07T23:20:51.420Z,24.65
2019-04-07T23:23:21.795Z,26.37
2019-04-07T23:25:53.552Z,23.60
2019-04-07T23:28:23.150Z,23.40
2019-04-07T23:30:52.591Z,22.77
2019-04-07T23:33:22.323Z,21.05
2019-04-07T23:35:51.636Z,21.97
2019-04-07T23:38:21.864Z,21.82
2019-04-07T23:40:51.567Z,20.90
2019-04-07T23:43:21.622Z,19.15
2019-04-07T23:45:51.709Z,20.00
2019-04-07T23:48:22.179Z,19.87
2019-04-07T23:50:52.022Z,19.82
2019-04-07T23:54:11.307Z,19.23
2019-04-07T23:56:42.102Z,18.70
2019-04-07T23:59:11.499Z,19.37
